Time;durP1;ratioP1;P1;durP2;ratioP2;P2;SDS_P1;SDS_P2;PMS_P1;PMS_P2;Temp;Humidity;BMP_temperature;BMP_pressure;BME280_temperature;BME280_humidity;BME280_pressure;Samples;Min_cycle;Max_cycle;Signal;HPM_P1;HPM_P2
2024/04/14 00:02:12;;;;;;;3.00;1.60;;;;;;;;;;5420532;26;20237;-53
2024/04/14 00:04:38;;;;;;;3.20;1.10;;;;;;;;;;5430636;26;20253;-54
2024/04/14 00:07:04;;;;;;;1.60;1.50;;;;;;;;;;5426830;26;20769;-54
2024/04/14 00:09:30;;;;;;;2.37;1.33;;;;;;;;;;5422878;26;20280;-57
2024/04/14 00:11:56;;;;;;;1.87;1.40;;;;;;;;;;5425990;26;20253;-57
2024/04/14 00:14:26;;;;;;;1.33;1.20;;;;;;;;;;5422302;26;20634;-57
2024/04/14 00:16:52;;;;;;;1.40;1.17;;;;;;;;;;5431653;26;20277;-57
2024/04/14 00:19:20;;;;;;;2.00;1.50;;;;;;;;;;5421212;26;20720;-57
2024/04/14 00:21:47;;;;;;;2.23;1.10;;;;;;;;;;5432060;26;20226;-57
2024/04/14 00:24:13;;;;;;;3.57;1.40;;;;;;;;;;5429381;26;20266;-57
2024/04/14 00:26:39;;;;;;;2.60;1.40;;;;;;;;;;5430630;26;20225;-57
2024/04/14 00:29:05;;;;;;;1.83;1.60;;;;;;;;;;5427849;26;21130;-57
2024/04/14 00:31:32;;;;;;;4.07;1.73;;;;;;;;;;5446691;26;20334;-57
2024/04/14 00:33:58;;;;;;;2.63;1.50;;;;;;;;;;5427265;26;20274;-57
2024/04/14 00:36:24;;;;;;;1.83;1.50;;;;;;;;;;5430302;26;20780;-57
2024/04/14 00:38:50;;;;;;;4.90;1.30;;;;;;;;;;5432020;26;20222;-57
2024/04/14 00:41:16;;;;;;;2.33;1.37;;;;;;;;;;5431338;26;20265;-56
2024/04/14 00:43:42;;;;;;;2.17;1.40;;;;;;;;;;5439430;26;20222;-57
2024/04/14 00:46:08;;;;;;;2.73;1.57;;;;;;;;;;5432893;26;20237;-57
2024/04/14 00:48:35;;;;;;;1.53;1.33;;;;;;;;;;5429150;26;20226;-57
2024/04/14 00:51:01;;;;;;;1.60;1.50;;;;;;;;;;5436296;26;20238;-56
2024/04/14 00:53:27;;;;;;;1.80;1.50;;;;;;;;;;5435228;26;20225;-57
2024/04/14 00:55:54;;;;;;;4.50;1.80;;;;;;;;;;5425609;26;20269;-57
2024/04/14 00:58:20;;;;;;;1.70;1.10;;;;;;;;;;5424931;26;20276;-57
2024/04/14 01:00:46;;;;;;;3.17;1.63;;;;;;;;;;5428090;26;20250;-56
2024/04/14 01:03:12;;;;;;;3.27;1.37;;;;;;;;;;5435654;26;20272;-57
2024/04/14 01:05:38;;;;;;;4.53;1.83;;;;;;;;;;5424752;26;20289;-57
2024/04/14 01:08:05;;;;;;;3.43;1.63;;;;;;;;;;5436850;26;20222;-57
2024/04/14 01:10:32;;;;;;;3.40;1.87;;;;;;;;;;5432774;26;20717;-54
2024/04/14 01:12:58;;;;;;;2.80;1.47;;;;;;;;;;5428087;26;20282;-54
2024/04/14 01:15:24;;;;;;;2.67;1.47;;;;;;;;;;5422898;26;20633;-54
2024/04/14 01:17:50;;;;;;;10.20;1.93;;;;;;;;;;5422386;26;20335;-54
2024/04/14 01:20:16;;;;;;;2.47;1.77;;;;;;;;;;5428690;26;20589;-56
2024/04/14 01:22:42;;;;;;;2.93;1.73;;;;;;;;;;5421984;26;20272;-56
2024/04/14 01:25:09;;;;;;;2.50;1.40;;;;;;;;;;5420809;26;20225;-57
2024/04/14 01:27:35;;;;;;;7.67;1.47;;;;;;;;;;5416871;26;20230;-57
2024/04/14 01:30:05;;;;;;;1.80;1.60;;;;;;;;;;5430536;26;20333;-56
2024/04/14 01:32:33;;;;;;;2.27;1.77;;;;;;;;;;5424591;26;20233;-56
2024/04/14 01:35:00;;;;;;;2.17;1.60;;;;;;;;;;5421625;26;20237;-56
2024/04/14 01:37:26;;;;;;;2.30;1.60;;;;;;;;;;5426127;26;20241;-56
2024/04/14 01:39:52;;;;;;;3.30;1.57;;;;;;;;;;5427212;26;21150;-56
2024/04/14 01:42:18;;;;;;;3.63;1.40;;;;;;;;;;5428218;26;20237;-56
2024/04/14 01:44:44;;;;;;;5.07;1.90;;;;;;;;;;5436640;26;20241;-56
2024/04/14 01:47:10;;;;;;;2.07;1.47;;;;;;;;;;5421808;26;20231;-56
2024/04/14 01:49:36;;;;;;;1.93;1.50;;;;;;;;;;5419913;26;20279;-56
2024/04/14 01:52:02;;;;;;;4.27;2.13;;;;;;;;;;5419742;26;20228;-56
2024/04/14 01:54:28;;;;;;;2.57;1.87;;;;;;;;;;5421296;26;20252;-56
2024/04/14 01:56:54;;;;;;;2.57;1.67;;;;;;;;;;5420739;26;20237;-56
2024/04/14 01:59:20;;;;;;;2.37;1.57;;;;;;;;;;5438739;26;20323;-56
2024/04/14 02:01:46;;;;;;;2.70;1.67;;;;;;;;;;5418392;26;20286;-56
2024/04/14 02:04:12;;;;;;;4.13;1.70;;;;;;;;;;5427448;26;20340;-56
2024/04/14 02:06:38;;;;;;;3.83;2.00;;;;;;;;;;5421842;26;20236;-56
2024/04/14 02:09:04;;;;;;;2.67;1.80;;;;;;;;;;5431014;26;20232;-56
2024/04/14 02:11:30;;;;;;;2.37;1.80;;;;;;;;;;5425667;26;20749;-55
2024/04/14 02:13:57;;;;;;;3.73;1.80;;;;;;;;;;5429823;26;20250;-55
2024/04/14 02:16:23;;;;;;;2.80;1.53;;;;;;;;;;5434241;26;20857;-55
2024/04/14 02:18:49;;;;;;;3.37;1.80;;;;;;;;;;5438338;26;20786;-55
2024/04/14 02:21:15;;;;;;;3.10;1.73;;;;;;;;;;5433121;26;20662;-55
2024/04/14 02:23:41;;;;;;;1.60;1.50;;;;;;;;;;5433764;26;20234;-55
2024/04/14 02:26:07;;;;;;;3.97;2.37;;;;;;;;;;5435357;26;20233;-55
2024/04/14 02:28:33;;;;;;;7.53;1.83;;;;;;;;;;5439949;26;20639;-55
2024/04/14 02:31:00;;;;;;;4.40;1.83;;;;;;;;;;5420895;26;20272;-55
2024/04/14 02:33:26;;;;;;;2.93;1.50;;;;;;;;;;5435430;26;20240;-55
2024/04/14 02:35:57;;;;;;;3.40;2.03;;;;;;;;;;5437517;26;20848;-54
2024/04/14 02:38:23;;;;;;;2.50;1.67;;;;;;;;;;5434669;26;20236;-55
2024/04/14 02:40:59;;;;;;;2.77;1.90;;;;;;;;;;5427025;26;20300;-54
2024/04/14 02:43:26;;;;;;;2.40;2.00;;;;;;;;;;5438250;26;20222;-55
2024/04/14 02:45:52;;;;;;;2.60;1.77;;;;;;;;;;5424202;26;20289;-55
2024/04/14 02:48:19;;;;;;;4.13;2.00;;;;;;;;;;5430097;26;20596;-55
2024/04/14 02:50:45;;;;;;;4.43;2.87;;;;;;;;;;5425687;26;20324;-54
2024/04/14 02:53:11;;;;;;;2.17;1.83;;;;;;;;;;5429976;26;20228;-54
2024/04/14 02:55:38;;;;;;;3.70;2.27;;;;;;;;;;5431581;26;20275;-54
2024/04/14 02:58:04;;;;;;;3.90;2.03;;;;;;;;;;5418046;26;20643;-54
2024/04/14 03:00:30;;;;;;;5.27;2.70;;;;;;;;;;5421289;26;20271;-54
2024/04/14 03:02:56;;;;;;;3.03;2.07;;;;;;;;;;5434702;26;20718;-54
2024/04/14 03:05:23;;;;;;;2.80;2.10;;;;;;;;;;5436808;26;20316;-54
2024/04/14 03:07:49;;;;;;;3.23;1.83;;;;;;;;;;5435148;26;20236;-54
2024/04/14 03:10:15;;;;;;;4.00;2.40;;;;;;;;;;5422543;26;20261;-55
2024/04/14 03:12:41;;;;;;;5.13;2.47;;;;;;;;;;5421360;26;20261;-54
2024/04/14 03:15:07;;;;;;;7.20;3.10;;;;;;;;;;5419734;26;20230;-54
2024/04/14 03:17:34;;;;;;;2.97;2.67;;;;;;;;;;5421805;26;20274;-54
2024/04/14 03:20:00;;;;;;;4.90;1.90;;;;;;;;;;5436953;26;20234;-55
2024/04/14 03:22:26;;;;;;;4.73;2.30;;;;;;;;;;5429770;26;20704;-55
2024/04/14 03:24:52;;;;;;;5.80;2.80;;;;;;;;;;5429534;26;20297;-54
2024/04/14 03:27:18;;;;;;;4.57;2.10;;;;;;;;;;5428198;26;20225;-54
2024/04/14 03:29:45;;;;;;;4.67;2.23;;;;;;;;;;5418528;26;20867;-55
2024/04/14 03:32:11;;;;;;;7.17;2.40;;;;;;;;;;5420984;26;20232;-54
2024/04/14 03:34:37;;;;;;;4.43;2.20;;;;;;;;;;5419427;26;20599;-55
2024/04/14 03:37:06;;;;;;;5.93;2.33;;;;;;;;;;5425195;26;20334;-55
2024/04/14 03:39:32;;;;;;;4.23;2.50;;;;;;;;;;5436776;26;20243;-55
2024/04/14 03:41:58;;;;;;;5.83;2.60;;;;;;;;;;5432602;26;20233;-55
2024/04/14 03:44:24;;;;;;;3.97;1.93;;;;;;;;;;5418399;26;20233;-55
2024/04/14 03:46:50;;;;;;;4.20;2.60;;;;;;;;;;5432165;26;20717;-55
2024/04/14 03:49:16;;;;;;;8.87;3.57;;;;;;;;;;5444011;26;20233;-55
2024/04/14 03:51:42;;;;;;;5.27;2.23;;;;;;;;;;5433389;26;20282;-56
2024/04/14 03:54:08;;;;;;;4.97;2.27;;;;;;;;;;5432609;26;20234;-56
2024/04/14 03:56:34;;;;;;;4.17;2.17;;;;;;;;;;5431810;26;20231;-56
2024/04/14 03:59:00;;;;;;;6.20;2.50;;;;;;;;;;5428524;26;20273;-56
2024/04/14 04:01:26;;;;;;;5.10;2.17;;;;;;;;;;5432645;26;20233;-56
2024/04/14 04:03:52;;;;;;;4.07;1.97;;;;;;;;;;5443383;26;20238;-56
2024/04/14 04:06:18;;;;;;;4.97;2.47;;;;;;;;;;5433483;26;21841;-56
2024/04/14 04:08:48;;;;;;;5.47;2.63;;;;;;;;;;5431652;26;20743;-56
2024/04/14 04:11:14;;;;;;;4.30;2.43;;;;;;;;;;5426111;26;20281;-56
2024/04/14 04:13:40;;;;;;;7.03;2.90;;;;;;;;;;5435892;26;21116;-56
2024/04/14 04:16:06;;;;;;;6.93;2.50;;;;;;;;;;5425914;26;20246;-56
2024/04/14 04:18:33;;;;;;;3.87;2.50;;;;;;;;;;5427205;26;20657;-56
2024/04/14 04:21:05;;;;;;;6.33;2.50;;;;;;;;;;5435112;26;20276;-55
2024/04/14 04:23:31;;;;;;;7.03;2.53;;;;;;;;;;5416987;26;20284;-56
2024/04/14 04:25:58;;;;;;;3.20;2.43;;;;;;;;;;5429074;26;20230;-56
2024/04/14 04:28:25;;;;;;;11.67;3.00;;;;;;;;;;5435119;26;20230;-56
2024/04/14 04:30:51;;;;;;;4.77;2.60;;;;;;;;;;5434034;26;20713;-56
2024/04/14 04:33:17;;;;;;;9.10;3.20;;;;;;;;;;5437010;26;20230;-54
2024/04/14 04:35:57;;;;;;;5.30;2.57;;;;;;;;;;5425991;26;20591;-53
2024/04/14 04:38:23;;;;;;;3.63;2.73;;;;;;;;;;5427019;26;20225;-53
2024/04/14 04:40:50;;;;;;;6.87;2.60;;;;;;;;;;5429326;26;20362;-53
2024/04/14 04:43:16;;;;;;;6.47;2.67;;;;;;;;;;5437406;26;20226;-53
2024/04/14 04:45:42;;;;;;;4.43;3.00;;;;;;;;;;5427726;26;20227;-51
2024/04/14 04:48:11;;;;;;;7.10;2.60;;;;;;;;;;5419644;26;20230;-52
2024/04/14 04:50:37;;;;;;;5.10;2.97;;;;;;;;;;5430690;26;20234;-54
2024/04/14 04:53:03;;;;;;;6.57;3.30;;;;;;;;;;5423981;26;20765;-55
2024/04/14 04:55:31;;;;;;;7.70;2.70;;;;;;;;;;5422492;26;20234;-54
2024/04/14 04:57:58;;;;;;;5.70;3.10;;;;;;;;;;5425542;26;20338;-55
2024/04/14 05:00:24;;;;;;;8.57;3.30;;;;;;;;;;5429725;26;20664;-55
2024/04/14 05:02:50;;;;;;;5.30;2.60;;;;;;;;;;5434663;26;22082;-56
2024/04/14 05:05:16;;;;;;;8.17;3.00;;;;;;;;;;5417635;26;20223;-55
2024/04/14 05:07:42;;;;;;;6.90;3.27;;;;;;;;;;5421326;26;20810;-55
2024/04/14 05:10:08;;;;;;;8.23;3.17;;;;;;;;;;5419392;26;20276;-55
2024/04/14 05:12:34;;;;;;;6.03;2.93;;;;;;;;;;5432990;26;20285;-55
2024/04/14 05:15:04;;;;;;;4.43;2.70;;;;;;;;;;5422892;26;20233;-55
2024/04/14 05:17:30;;;;;;;7.23;2.73;;;;;;;;;;5416231;26;20260;-56
2024/04/14 05:19:56;;;;;;;8.60;2.90;;;;;;;;;;5433889;26;20233;-55
2024/04/14 05:22:22;;;;;;;10.80;3.70;;;;;;;;;;5422119;26;20231;-56
2024/04/14 05:24:48;;;;;;;8.57;2.87;;;;;;;;;;5426012;26;20265;-56
2024/04/14 05:27:16;;;;;;;7.00;3.20;;;;;;;;;;5425758;26;20241;-56
2024/04/14 05:29:45;;;;;;;5.60;3.03;;;;;;;;;;5431420;26;20851;-56
2024/04/14 05:32:12;;;;;;;8.93;3.27;;;;;;;;;;5422268;26;20706;-55
2024/04/14 05:34:38;;;;;;;6.57;2.70;;;;;;;;;;5428237;26;20249;-55
2024/04/14 05:37:04;;;;;;;7.00;2.90;;;;;;;;;;5433350;26;20748;-56
2024/04/14 05:39:32;;;;;;;7.70;3.00;;;;;;;;;;5420940;26;20273;-55
2024/04/14 05:41:58;;;;;;;5.90;2.70;;;;;;;;;;5436845;26;20294;-55
2024/04/14 05:44:24;;;;;;;7.47;3.30;;;;;;;;;;5422430;26;20350;-54
2024/04/14 05:46:50;;;;;;;4.67;2.67;;;;;;;;;;5436870;26;20353;-55
2024/04/14 05:49:20;;;;;;;7.40;2.90;;;;;;;;;;5421759;26;20230;-56
2024/04/14 05:51:46;;;;;;;5.10;2.80;;;;;;;;;;5424617;26;21043;-56
2024/04/14 05:54:12;;;;;;;6.33;2.87;;;;;;;;;;5422475;26;20234;-56
2024/04/14 05:56:38;;;;;;;5.27;2.80;;;;;;;;;;5430740;26;21101;-56
2024/04/14 05:59:04;;;;;;;4.00;2.60;;;;;;;;;;5412901;26;20340;-55
2024/04/14 06:01:30;;;;;;;4.90;2.47;;;;;;;;;;5416217;26;20239;-53
2024/04/14 06:03:56;;;;;;;6.33;3.27;;;;;;;;;;5435771;26;20226;-53
2024/04/14 06:06:22;;;;;;;7.23;3.10;;;;;;;;;;5420345;26;20348;-53
2024/04/14 06:08:48;;;;;;;8.07;2.50;;;;;;;;;;5432580;26;20328;-53
2024/04/14 06:11:15;;;;;;;8.10;3.53;;;;;;;;;;5431725;26;20234;-52
2024/04/14 06:13:41;;;;;;;4.77;2.90;;;;;;;;;;5419122;26;20235;-53
2024/04/14 06:16:07;;;;;;;7.57;3.20;;;;;;;;;;5432905;26;20282;-53
2024/04/14 06:18:33;;;;;;;5.80;3.20;;;;;;;;;;5424685;26;20684;-53
2024/04/14 06:20:59;;;;;;;7.00;3.58;;;;;;;;;;5424084;26;20403;-53
2024/04/14 06:23:26;;;;;;;7.20;2.97;;;;;;;;;;5420893;26;20265;-52
2024/04/14 06:25:52;;;;;;;8.90;3.53;;;;;;;;;;5429134;26;20621;-53
2024/04/14 06:28:19;;;;;;;6.70;2.93;;;;;;;;;;5440780;26;20288;-53
2024/04/14 06:30:45;;;;;;;9.40;3.23;;;;;;;;;;5437392;26;20234;-52
2024/04/14 06:33:11;;;;;;;8.83;3.17;;;;;;;;;;5415396;26;20824;-52
2024/04/14 06:35:37;;;;;;;10.87;3.70;;;;;;;;;;5430177;26;20642;-52
2024/04/14 06:38:04;;;;;;;6.43;3.23;;;;;;;;;;5428102;26;20235;-52
2024/04/14 06:40:30;;;;;;;8.63;3.10;;;;;;;;;;5417348;26;20235;-59
2024/04/14 06:42:56;;;;;;;8.50;3.70;;;;;;;;;;5424670;26;20318;-52
2024/04/14 06:45:22;;;;;;;10.17;4.07;;;;;;;;;;5421198;26;20243;-53
2024/04/14 06:47:48;;;;;;;6.20;3.30;;;;;;;;;;5422360;26;20278;-53
2024/04/14 06:50:14;;;;;;;5.30;3.47;;;;;;;;;;5415999;26;20580;-53
2024/04/14 06:52:40;;;;;;;6.87;3.40;;;;;;;;;;5439410;26;20582;-52
2024/04/14 06:55:11;;;;;;;8.97;3.63;;;;;;;;;;5419260;26;20814;-53
2024/04/14 06:57:37;;;;;;;6.23;4.13;;;;;;;;;;5422506;26;20704;-53
2024/04/14 07:00:03;;;;;;;10.27;4.10;;;;;;;;;;5428854;26;20230;-54
2024/04/14 07:02:29;;;;;;;5.33;3.33;;;;;;;;;;5426428;26;20226;-53
2024/04/14 07:04:55;;;;;;;7.10;3.33;;;;;;;;;;5416441;26;20231;-53
2024/04/14 07:07:21;;;;;;;6.93;3.50;;;;;;;;;;5425449;26;20638;-53
2024/04/14 07:09:47;;;;;;;10.47;3.20;;;;;;;;;;5428962;26;20580;-53
2024/04/14 07:12:13;;;;;;;6.33;3.17;;;;;;;;;;5423370;26;20265;-54
2024/04/14 07:14:39;;;;;;;5.97;3.67;;;;;;;;;;5422877;26;20729;-54
2024/04/14 07:17:05;;;;;;;10.50;3.63;;;;;;;;;;5428148;26;20744;-54
2024/04/14 07:19:32;;;;;;;6.97;3.63;;;;;;;;;;5431021;26;20674;-56
2024/04/14 07:21:58;;;;;;;6.27;2.97;;;;;;;;;;5430482;26;20261;-53
2024/04/14 07:24:24;;;;;;;8.30;3.07;;;;;;;;;;5424450;26;21049;-53
2024/04/14 07:26:50;;;;;;;6.90;3.33;;;;;;;;;;5435403;26;20922;-54
2024/04/14 07:29:16;;;;;;;6.10;2.73;;;;;;;;;;5425468;26;20230;-53
2024/04/14 07:31:42;;;;;;;7.83;3.27;;;;;;;;;;5417756;26;20575;-64
2024/04/14 07:34:08;;;;;;;7.60;3.00;;;;;;;;;;5430719;26;20332;-53
2024/04/14 07:36:34;;;;;;;6.90;3.63;;;;;;;;;;5435951;26;20230;-54
2024/04/14 07:39:00;;;;;;;4.40;2.67;;;;;;;;;;5428582;26;20230;-54
2024/04/14 07:41:26;;;;;;;9.40;3.20;;;;;;;;;;5428751;26;20242;-54
2024/04/14 07:43:52;;;;;;;7.03;3.60;;;;;;;;;;5423746;26;20331;-55
2024/04/14 07:46:18;;;;;;;5.83;3.20;;;;;;;;;;5429946;26;20238;-54
2024/04/14 07:48:45;;;;;;;6.80;3.13;;;;;;;;;;5417033;26;20277;-54
2024/04/14 07:51:11;;;;;;;6.23;3.40;;;;;;;;;;5428306;26;20235;-54
2024/04/14 07:53:37;;;;;;;12.50;3.63;;;;;;;;;;5414371;26;20277;-56
2024/04/14 07:56:03;;;;;;;7.10;3.00;;;;;;;;;;5427512;26;20330;-56
2024/04/14 07:58:29;;;;;;;10.13;4.00;;;;;;;;;;5420671;26;20230;-54
2024/04/14 08:00:55;;;;;;;8.90;3.10;;;;;;;;;;5425420;26;20280;-53
2024/04/14 08:03:21;;;;;;;4.67;2.73;;;;;;;;;;5431753;26;20237;-56
2024/04/14 08:05:47;;;;;;;6.70;2.93;;;;;;;;;;5434784;26;20578;-54
2024/04/14 08:08:13;;;;;;;10.50;3.83;;;;;;;;;;5424587;26;20229;-55
2024/04/14 08:10:39;;;;;;;6.53;3.40;;;;;;;;;;5430764;26;20234;-54
2024/04/14 08:13:05;;;;;;;11.10;3.50;;;;;;;;;;5425871;26;20611;-57
2024/04/14 08:15:31;;;;;;;10.73;4.10;;;;;;;;;;5433800;26;20225;-55
2024/04/14 08:17:58;;;;;;;7.13;3.57;;;;;;;;;;5420855;26;20230;-55
2024/04/14 08:20:27;;;;;;;4.23;2.93;;;;;;;;;;5424509;26;20276;-56
2024/04/14 08:22:53;;;;;;;7.77;3.13;;;;;;;;;;5428252;26;20762;-53
2024/04/14 08:25:19;;;;;;;6.60;3.67;;;;;;;;;;5434329;26;20567;-53
2024/04/14 08:27:45;;;;;;;11.37;3.93;;;;;;;;;;5422463;26;20237;-53
2024/04/14 08:30:11;;;;;;;6.30;3.17;;;;;;;;;;5427153;26;20231;-53
2024/04/14 08:32:37;;;;;;;8.70;3.17;;;;;;;;;;5433037;26;20235;-52
2024/04/14 08:35:03;;;;;;;6.50;3.03;;;;;;;;;;5434043;26;20242;-53
2024/04/14 08:37:29;;;;;;;7.23;3.40;;;;;;;;;;5418623;26;20601;-52
2024/04/14 08:39:55;;;;;;;8.77;3.33;;;;;;;;;;5424572;26;20241;-52
2024/04/14 08:42:22;;;;;;;5.87;3.27;;;;;;;;;;5425026;26;20230;-52
2024/04/14 08:44:49;;;;;;;5.43;3.23;;;;;;;;;;5443067;26;20230;-51
2024/04/14 08:47:18;;;;;;;7.43;3.47;;;;;;;;;;5424600;26;20714;-52
2024/04/14 08:49:44;;;;;;;5.63;2.97;;;;;;;;;;5436145;26;20277;-52
2024/04/14 08:52:11;;;;;;;6.47;3.50;;;;;;;;;;5423478;26;20273;-52
2024/04/14 08:54:37;;;;;;;5.87;3.33;;;;;;;;;;5421040;26;20230;-51
2024/04/14 08:57:04;;;;;;;9.80;3.87;;;;;;;;;;5419087;26;20552;-52
2024/04/14 08:59:31;;;;;;;6.27;3.30;;;;;;;;;;5430705;26;22482;-53
2024/04/14 09:02:03;;;;;;;8.83;4.10;;;;;;;;;;5431565;26;20234;-53
2024/04/14 09:04:29;;;;;;;7.97;3.40;;;;;;;;;;5424929;26;20242;-53
2024/04/14 09:06:55;;;;;;;7.53;3.20;;;;;;;;;;5443673;26;20225;-53
2024/04/14 09:09:21;;;;;;;8.00;3.40;;;;;;;;;;5423085;26;21035;-52
2024/04/14 09:11:51;;;;;;;8.83;3.83;;;;;;;;;;5425314;26;20230;-53
2024/04/14 09:14:17;;;;;;;10.53;4.10;;;;;;;;;;5429035;26;20234;-56
2024/04/14 09:16:44;;;;;;;5.43;2.50;;;;;;;;;;5423058;26;20752;-55
2024/04/14 09:19:10;;;;;;;5.97;2.63;;;;;;;;;;5423401;26;20295;-57
2024/04/14 09:21:36;;;;;;;7.23;3.03;;;;;;;;;;5425081;26;20233;-54
2024/04/14 09:24:02;;;;;;;4.10;2.50;;;;;;;;;;5422485;26;20771;-54
2024/04/14 09:26:28;;;;;;;7.03;2.57;;;;;;;;;;5425484;26;20277;-55
2024/04/14 09:29:06;;;;;;;4.33;2.23;;;;;;;;;;5433735;26;20228;-56
2024/04/14 09:31:36;;;;;;;6.00;2.13;;;;;;;;;;5424928;26;20293;-62
2024/04/14 09:34:05;;;;;;;3.10;1.83;;;;;;;;;;5421300;26;20610;-56
2024/04/14 09:36:31;;;;;;;6.73;2.33;;;;;;;;;;5434044;26;20229;-56
2024/04/14 09:38:58;;;;;;;7.27;2.70;;;;;;;;;;5430557;26;20311;-55
2024/04/14 09:41:24;;;;;;;7.00;2.53;;;;;;;;;;5423471;26;20853;-55
2024/04/14 09:43:51;;;;;;;6.97;2.80;;;;;;;;;;5420415;26;20244;-56
2024/04/14 09:46:21;;;;;;;3.93;1.73;;;;;;;;;;5423325;26;20268;-56
2024/04/14 09:48:48;;;;;;;4.73;2.37;;;;;;;;;;5423078;26;20238;-56
2024/04/14 09:51:15;;;;;;;7.43;2.77;;;;;;;;;;5426472;26;20575;-56
2024/04/14 09:53:41;;;;;;;4.60;2.30;;;;;;;;;;5424665;26;20573;-56
2024/04/14 09:56:07;;;;;;;6.53;2.40;;;;;;;;;;5425055;26;20243;-56
2024/04/14 09:58:33;;;;;;;5.23;2.37;;;;;;;;;;5424940;26;20572;-56
2024/04/14 10:01:03;;;;;;;10.17;2.60;;;;;;;;;;5425748;26;20324;-55
2024/04/14 10:03:30;;;;;;;7.00;2.43;;;;;;;;;;5420251;26;20334;-56
2024/04/14 10:05:57;;;;;;;8.87;4.27;;;;;;;;;;5421926;26;20282;-56
2024/04/14 10:08:23;;;;;;;5.13;2.37;;;;;;;;;;5422237;26;20655;-57
2024/04/14 10:10:53;;;;;;;7.85;2.17;;;;;;;;;;5422459;26;20702;-56
2024/04/14 10:13:19;;;;;;;6.73;2.30;;;;;;;;;;5426595;26;20761;-56
2024/04/14 10:15:45;;;;;;;9.50;3.00;;;;;;;;;;5412861;26;20266;-56
2024/04/14 10:18:15;;;;;;;5.93;2.30;;;;;;;;;;5437825;26;20232;-56
2024/04/14 10:20:43;;;;;;;6.60;2.33;;;;;;;;;;5425340;26;20676;-56
2024/04/14 10:23:09;;;;;;;6.20;1.97;;;;;;;;;;5416067;26;20231;-55
2024/04/14 10:25:45;;;;;;;4.43;2.70;;;;;;;;;;5418710;26;20224;-54
2024/04/14 10:28:11;;;;;;;5.57;1.90;;;;;;;;;;5423047;26;20239;-54
2024/04/14 10:30:37;;;;;;;6.73;2.30;;;;;;;;;;5425925;26;20304;-54
2024/04/14 10:33:03;;;;;;;5.80;1.83;;;;;;;;;;5434262;26;20278;-54
2024/04/14 10:35:30;;;;;;;7.30;1.90;;;;;;;;;;5425449;26;20238;-54
2024/04/14 10:37:56;;;;;;;4.30;2.17;;;;;;;;;;5425220;26;20333;-54
2024/04/14 10:40:22;;;;;;;4.83;1.90;;;;;;;;;;5422150;26;20246;-54
2024/04/14 10:42:48;;;;;;;3.30;2.07;;;;;;;;;;5429579;26;20629;-54
2024/04/14 10:45:32;;;;;;;7.27;1.87;;;;;;;;;;5427723;26;20754;-53
2024/04/14 10:47:58;;;;;;;4.00;1.30;;;;;;;;;;5416796;26;20597;-53
2024/04/14 10:50:25;;;;;;;4.83;1.90;;;;;;;;;;5430936;26;20284;-58
2024/04/14 10:52:51;;;;;;;4.33;1.97;;;;;;;;;;5421889;26;20312;-54
2024/04/14 10:55:17;;;;;;;5.13;1.70;;;;;;;;;;5426921;26;20236;-53
2024/04/14 10:57:43;;;;;;;5.40;1.80;;;;;;;;;;5433583;26;20287;-53
2024/04/14 11:00:10;;;;;;;6.83;2.57;;;;;;;;;;5418501;26;20881;-53
2024/04/14 11:02:36;;;;;;;2.37;1.50;;;;;;;;;;5422586;26;20686;-53
2024/04/14 11:05:02;;;;;;;5.50;1.90;;;;;;;;;;5430211;26;20530;-53
2024/04/14 11:07:28;;;;;;;4.17;1.60;;;;;;;;;;5422777;26;20230;-54
2024/04/14 11:09:55;;;;;;;3.00;1.47;;;;;;;;;;5423592;26;21149;-53
2024/04/14 11:12:21;;;;;;;4.50;1.87;;;;;;;;;;5432399;26;20246;-53
2024/04/14 11:14:47;;;;;;;4.27;1.80;;;;;;;;;;5417069;26;20236;-53
2024/04/14 11:17:13;;;;;;;4.80;1.90;;;;;;;;;;5421860;26;20256;-54
2024/04/14 11:19:39;;;;;;;1.37;1.27;;;;;;;;;;5422171;26;20272;-54
2024/04/14 11:22:05;;;;;;;4.77;2.20;;;;;;;;;;5422133;26;20249;-53
2024/04/14 11:24:34;;;;;;;5.87;1.70;;;;;;;;;;5430554;26;20242;-54
2024/04/14 11:27:00;;;;;;;4.87;1.60;;;;;;;;;;5417921;26;20747;-53
2024/04/14 11:29:27;;;;;;;3.70;1.50;;;;;;;;;;5426971;26;20213;-53
2024/04/14 11:31:53;;;;;;;4.63;2.10;;;;;;;;;;5421393;26;20230;-57
2024/04/14 11:34:19;;;;;;;4.97;1.87;;;;;;;;;;5419545;26;20238;-57
2024/04/14 11:36:47;;;;;;;4.57;1.87;;;;;;;;;;5415570;26;20846;-55
2024/04/14 11:39:13;;;;;;;3.47;1.70;;;;;;;;;;5435510;26;20276;-56
2024/04/14 11:41:40;;;;;;;6.67;1.87;;;;;;;;;;5419363;26;20276;-56
2024/04/14 11:44:06;;;;;;;3.20;1.60;;;;;;;;;;5416937;26;20327;-56
2024/04/14 11:46:32;;;;;;;5.23;1.83;;;;;;;;;;5422049;26;20250;-55
2024/04/14 11:48:58;;;;;;;5.83;2.43;;;;;;;;;;5422424;26;20265;-54
2024/04/14 11:51:24;;;;;;;4.40;1.90;;;;;;;;;;5427711;26;20227;-54
2024/04/14 11:53:50;;;;;;;2.17;1.40;;;;;;;;;;5421201;26;20281;-54
2024/04/14 11:56:16;;;;;;;3.53;1.70;;;;;;;;;;5434765;26;20250;-54
2024/04/14 11:58:42;;;;;;;2.50;1.57;;;;;;;;;;5421693;26;20790;-56
2024/04/14 12:01:08;;;;;;;4.63;2.05;;;;;;;;;;5428566;26;20473;-53
2024/04/14 12:03:34;;;;;;;3.43;1.70;;;;;;;;;;5434388;26;20230;-53
2024/04/14 12:06:00;;;;;;;3.77;1.27;;;;;;;;;;5424392;26;20268;-53
2024/04/14 12:08:26;;;;;;;4.37;2.37;;;;;;;;;;5418490;26;20619;-54
2024/04/14 12:10:52;;;;;;;3.33;1.80;;;;;;;;;;5418486;26;20793;-55
2024/04/14 12:13:18;;;;;;;3.73;1.70;;;;;;;;;;5427254;26;20340;-55
2024/04/14 12:15:45;;;;;;;3.60;1.87;;;;;;;;;;5427085;26;20281;-55
2024/04/14 12:18:12;;;;;;;3.63;1.90;;;;;;;;;;5426487;26;20274;-54
2024/04/14 12:20:38;;;;;;;4.30;1.80;;;;;;;;;;5425932;26;20632;-55
2024/04/14 12:23:04;;;;;;;3.73;1.50;;;;;;;;;;5425176;26;20604;-54
2024/04/14 12:25:30;;;;;;;2.67;1.33;;;;;;;;;;5434148;26;20349;-54
2024/04/14 12:27:56;;;;;;;3.73;2.10;;;;;;;;;;5421375;26;20235;-56
2024/04/14 12:30:22;;;;;;;2.30;1.43;;;;;;;;;;5422933;26;20273;-55
2024/04/14 12:32:48;;;;;;;1.70;1.60;;;;;;;;;;5424792;26;20233;-55
2024/04/14 12:35:14;;;;;;;2.13;1.70;;;;;;;;;;5425366;26;20766;-55
2024/04/14 12:37:40;;;;;;;7.83;1.83;;;;;;;;;;5433447;26;20251;-55
2024/04/14 12:40:07;;;;;;;2.57;2.00;;;;;;;;;;5423977;26;20578;-55
2024/04/14 12:42:33;;;;;;;4.87;1.70;;;;;;;;;;5420704;26;20276;-57
2024/04/14 12:44:59;;;;;;;3.70;1.67;;;;;;;;;;5429329;26;20218;-55
2024/04/14 12:47:25;;;;;;;3.23;1.70;;;;;;;;;;5431666;26;20229;-58
2024/04/14 12:49:51;;;;;;;4.57;2.20;;;;;;;;;;5427101;26;20229;-56
2024/04/14 12:52:17;;;;;;;4.10;2.00;;;;;;;;;;5415532;26;20349;-56
2024/04/14 12:54:43;;;;;;;4.73;2.13;;;;;;;;;;5438420;26;20713;-55
2024/04/14 12:57:09;;;;;;;3.33;1.87;;;;;;;;;;5427148;26;20273;-56
2024/04/14 12:59:35;;;;;;;5.10;2.10;;;;;;;;;;5439085;26;20364;-56
2024/04/14 13:02:01;;;;;;;3.17;2.03;;;;;;;;;;5421448;26;20243;-53
2024/04/14 13:04:27;;;;;;;3.13;1.63;;;;;;;;;;5422514;26;20226;-53
2024/04/14 13:06:53;;;;;;;4.83;1.80;;;;;;;;;;5432719;26;20354;-53
2024/04/14 13:09:19;;;;;;;5.30;1.70;;;;;;;;;;5434157;26;20263;-53
2024/04/14 13:11:45;;;;;;;3.17;1.70;;;;;;;;;;5429310;26;20233;-54
2024/04/14 13:14:11;;;;;;;6.37;2.33;;;;;;;;;;5415403;26;20750;-54
2024/04/14 13:16:37;;;;;;;4.43;1.90;;;;;;;;;;5431612;26;20259;-54
2024/04/14 13:19:03;;;;;;;5.20;2.27;;;;;;;;;;5416241;26;20243;-53
2024/04/14 13:21:33;;;;;;;5.77;2.37;;;;;;;;;;5423181;26;20612;-53
2024/04/14 13:23:59;;;;;;;3.73;1.70;;;;;;;;;;5425435;26;20755;-54
2024/04/14 13:26:27;;;;;;;4.47;2.43;;;;;;;;;;5422972;26;20774;-53
2024/04/14 13:28:53;;;;;;;3.73;2.13;;;;;;;;;;5426278;26;20242;-54
2024/04/14 13:31:19;;;;;;;4.20;1.80;;;;;;;;;;5426614;26;20684;-54
2024/04/14 13:33:46;;;;;;;3.60;2.37;;;;;;;;;;5426829;26;20234;-53
2024/04/14 13:36:12;;;;;;;6.37;2.33;;;;;;;;;;5431669;26;20303;-53
2024/04/14 13:38:38;;;;;;;4.27;1.80;;;;;;;;;;5426337;26;20238;-53
2024/04/14 13:41:08;;;;;;;6.77;2.40;;;;;;;;;;5431651;26;20237;-53
2024/04/14 13:43:34;;;;;;;4.20;1.63;;;;;;;;;;5437259;26;20552;-54
2024/04/14 13:46:00;;;;;;;4.53;2.00;;;;;;;;;;5421988;26;20338;-53
2024/04/14 13:48:27;;;;;;;5.47;2.17;;;;;;;;;;5437815;26;20299;-53
2024/04/14 13:50:53;;;;;;;5.13;2.00;;;;;;;;;;5427859;26;20218;-54
2024/04/14 13:53:19;;;;;;;4.77;1.90;;;;;;;;;;5419017;26;20227;-53
2024/04/14 13:55:45;;;;;;;4.73;1.83;;;;;;;;;;5441188;26;20222;-53
2024/04/14 13:58:11;;;;;;;4.23;1.90;;;;;;;;;;5419992;26;20282;-53
2024/04/14 14:00:37;;;;;;;9.13;2.13;;;;;;;;;;5429756;26;20927;-53
2024/04/14 14:03:04;;;;;;;4.40;2.03;;;;;;;;;;5421431;26;21103;-53
2024/04/14 14:05:30;;;;;;;6.77;2.30;;;;;;;;;;5428172;26;20650;-53
2024/04/14 14:07:56;;;;;;;5.80;2.07;;;;;;;;;;5422051;26;20303;-54
2024/04/14 14:10:23;;;;;;;5.67;2.20;;;;;;;;;;5437334;26;20559;-54
2024/04/14 14:12:50;;;;;;;5.77;2.30;;;;;;;;;;5428753;26;20777;-54
2024/04/14 14:15:16;;;;;;;5.43;2.60;;;;;;;;;;5428509;26;21032;-55
2024/04/14 14:17:42;;;;;;;6.10;2.53;;;;;;;;;;5414425;26;20227;-56
2024/04/14 14:20:08;;;;;;;3.10;2.27;;;;;;;;;;5436765;26;20227;-55
2024/04/14 14:22:34;;;;;;;5.33;2.43;;;;;;;;;;5421425;26;22120;-54
2024/04/14 14:25:00;;;;;;;5.87;1.93;;;;;;;;;;5418440;26;20226;-55
2024/04/14 14:27:26;;;;;;;5.37;2.47;;;;;;;;;;5430138;26;20230;-54
2024/04/14 14:29:52;;;;;;;4.97;2.33;;;;;;;;;;5423649;26;20281;-54
2024/04/14 14:32:18;;;;;;;7.73;2.47;;;;;;;;;;5415875;26;20245;-54
2024/04/14 14:37:29;;;;;;;2.53;1.83;;;;;;;;;;5414255;26;20340;-54
2024/04/14 14:39:55;;;;;;;5.93;2.30;;;;;;;;;;5427853;26;20229;-54
2024/04/14 14:42:22;;;;;;;10.90;2.50;;;;;;;;;;5434470;26;20239;-56